createdAt,value
2023-01-13T00:00:51.934Z,-4.44
2023-01-13T00:03:53.947Z,-4.43
2023-01-13T00:06:55.772Z,-4.37
2023-01-13T00:09:57.731Z,-4.41
2023-01-13T00:13:00.206Z,-4.43
2023-01-13T00:16:07.672Z,-4.38
2023-01-13T00:19:09.721Z,-4.39
2023-01-13T00:22:11.639Z,-4.37
2023-01-13T00:25:13.753Z,-4.30
2023-01-13T00:28:15.613Z,-4.35
2023-01-13T00:31:19.921Z,-4.30
2023-01-13T00:34:22.689Z,-4.31
2023-01-13T00:37:25.064Z,-4.30
2023-01-13T00:40:27.019Z,-4.32
2023-01-13T00:43:30.701Z,-4.26
2023-01-13T00:46:32.604Z,-4.21
2023-01-13T00:49:34.579Z,-4.16
2023-01-13T00:52:36.553Z,-4.14
2023-01-13T00:55:38.584Z,-4.15
2023-01-13T00:58:41.307Z,-4.14
2023-01-13T01:01:43.614Z,-4.12
2023-01-13T01:04:45.657Z,-4.17
2023-01-13T01:07:47.556Z,-4.20
2023-01-13T01:10:49.519Z,-4.22
2023-01-13T01:13:52.873Z,-4.19
2023-01-13T01:16:54.912Z,-4.16
2023-01-13T01:19:57.005Z,-4.16
2023-01-13T01:22:58.977Z,-4.18
2023-01-13T01:26:05.413Z,-4.19
2023-01-13T01:29:07.366Z,-4.14
2023-01-13T01:32:09.189Z,-4.12
2023-01-13T01:35:11.179Z,-4.12
2023-01-13T01:38:13.032Z,-4.14
2023-01-13T01:41:17.596Z,-4.14
2023-01-13T01:44:54.027Z,-4.11
2023-01-13T01:48:04.440Z,-4.12
2023-01-13T01:51:12.647Z,-4.09
2023-01-13T01:54:20.683Z,-4.07
2023-01-13T01:57:54.359Z,-4.10
2023-01-13T02:00:56.397Z,-4.12
2023-01-13T02:04:05.350Z,-4.12
2023-01-13T02:07:08.150Z,-4.05
2023-01-13T02:10:13.915Z,-4.06
2023-01-13T02:13:15.928Z,-4.06
2023-01-13T02:16:23.221Z,-4.02
2023-01-13T02:19:37.076Z,-3.94
2023-01-13T02:23:03.618Z,-3.90
2023-01-13T02:26:11.663Z,-3.92
2023-01-13T02:30:10.410Z,-3.94
2023-01-13T02:33:27.238Z,-3.95
2023-01-13T02:36:54.039Z,-3.88
2023-01-13T02:40:01.572Z,-3.93
2023-01-13T02:43:36.225Z,-3.89
2023-01-13T02:46:45.203Z,-3.95
2023-01-13T02:49:51.207Z,-3.95
2023-01-13T02:52:58.551Z,-3.94
2023-01-13T02:56:03.616Z,-3.95
2023-01-13T02:59:06.664Z,-3.94
2023-01-13T03:02:13.256Z,-3.93
2023-01-13T03:05:17.561Z,-3.88
2023-01-13T03:08:31.366Z,-3.87
2023-01-13T03:11:59.655Z,-3.90
2023-01-13T03:15:17.339Z,-3.92
2023-01-13T03:18:50.875Z,-3.88
2023-01-13T03:22:07.821Z,-3.92
2023-01-13T03:25:27.857Z,-3.85
2023-01-13T03:28:41.365Z,-3.86
2023-01-13T03:31:50.801Z,-3.80
2023-01-13T03:35:17.562Z,-3.80
2023-01-13T03:38:26.251Z,-3.83
2023-01-13T03:41:36.075Z,-3.86
2023-01-13T03:44:46.587Z,-3.82
2023-01-13T03:47:55.469Z,-3.86
2023-01-13T03:51:05.306Z,-3.85
2023-01-13T03:54:10.200Z,-3.91
2023-01-13T03:57:15.569Z,-3.88
2023-01-13T04:00:19.690Z,-3.89
2023-01-13T04:03:31.772Z,-3.83
2023-01-13T04:06:38.195Z,-3.79
2023-01-13T04:09:43.080Z,-3.75
2023-01-13T04:13:02.806Z,-3.72
2023-01-13T04:16:07.093Z,-3.71
2023-01-13T04:19:09.012Z,-3.72
2023-01-13T04:22:10.890Z,-3.73
2023-01-13T04:25:12.796Z,-3.73
2023-01-13T04:28:15.461Z,-3.78
2023-01-13T04:31:17.756Z,-3.72
2023-01-13T04:34:19.860Z,-3.72
2023-01-13T04:37:21.703Z,-3.71
2023-01-13T04:40:23.656Z,-3.72
2023-01-13T04:43:25.523Z,-3.68
2023-01-13T04:46:27.508Z,-3.66
2023-01-13T04:49:29.342Z,-3.73
2023-01-13T04:52:31.263Z,-3.72
2023-01-13T04:55:33.207Z,-3.71
2023-01-13T04:58:35.107Z,-3.74
2023-01-13T05:01:37.664Z,-3.72
2023-01-13T05:04:39.776Z,-3.73
2023-01-13T05:07:41.588Z,-3.74
2023-01-13T05:10:43.441Z,-3.79
2023-01-13T05:14:03.725Z,-3.71
2023-01-13T05:17:08.828Z,-3.74
2023-01-13T05:20:11.174Z,-3.75
2023-01-13T05:23:31.445Z,-3.75
2023-01-13T05:26:33.287Z,-3.75
2023-01-13T05:29:35.514Z,-3.71
2023-01-13T05:32:37.484Z,-3.75
2023-01-13T05:35:41.103Z,-3.67
2023-01-13T05:38:42.959Z,-3.69
2023-01-13T05:42:03.220Z,-3.73
2023-01-13T05:45:05.419Z,-3.73
2023-01-13T05:48:07.269Z,-3.71
2023-01-13T05:51:11.682Z,-3.70
2023-01-13T05:54:13.738Z,-3.71
2023-01-13T05:57:15.569Z,-3.72
2023-01-13T06:00:17.999Z,-3.76
2023-01-13T06:03:20.307Z,-3.75
2023-01-13T06:06:22.171Z,-3.66
2023-01-13T06:09:24.037Z,-3.63
2023-01-13T06:12:25.855Z,-3.66
2023-01-13T06:15:27.840Z,-3.66
2023-01-13T06:18:29.807Z,-3.63
2023-01-13T06:21:33.205Z,-3.61
2023-01-13T06:24:36.105Z,-3.61
2023-01-13T06:27:38.585Z,-3.60
2023-01-13T06:30:46.931Z,-3.58
2023-01-13T06:33:52.680Z,-3.55
2023-01-13T06:36:55.744Z,-3.52
2023-01-13T06:39:59.767Z,-3.57
2023-01-13T06:43:17.956Z,-3.55
2023-01-13T06:46:19.976Z,-3.49
2023-01-13T06:49:22.004Z,-3.49
2023-01-13T06:52:24.479Z,-3.43
2023-01-13T06:55:26.423Z,-3.44
2023-01-13T06:58:28.369Z,-3.43
2023-01-13T07:01:30.474Z,-3.42
2023-01-13T07:04:32.476Z,-3.39
2023-01-13T07:07:34.365Z,-3.31
2023-01-13T07:10:37.179Z,-3.30
2023-01-13T07:13:57.710Z,-3.28
2023-01-13T07:16:59.651Z,-3.26
2023-01-13T07:20:01.661Z,-3.32
2023-01-13T07:23:03.536Z,-3.33
2023-01-13T07:26:06.602Z,-3.32
2023-01-13T07:29:08.519Z,-3.23
2023-01-13T07:32:10.475Z,-3.22
2023-01-13T07:35:12.410Z,-3.15
2023-01-13T07:38:15.092Z,-3.11
2023-01-13T07:41:35.867Z,-3.14
2023-01-13T07:44:37.981Z,-3.12
2023-01-13T07:47:40.467Z,-3.16
2023-01-13T07:50:44.137Z,-3.13
2023-01-13T07:53:46.159Z,-3.06
2023-01-13T07:56:48.062Z,-3.00
2023-01-13T07:59:49.913Z,-3.04
2023-01-13T08:02:52.279Z,-3.06
2023-01-13T08:05:54.133Z,-3.08
2023-01-13T08:08:56.049Z,-3.06
2023-01-13T08:12:16.793Z,-3.02
2023-01-13T08:15:18.673Z,-3.05
2023-01-13T08:18:23.053Z,-2.96
2023-01-13T08:21:24.916Z,-2.93
2023-01-13T08:24:26.899Z,-2.90
2023-01-13T08:27:28.852Z,-2.96
2023-01-13T08:30:30.766Z,-2.98
2023-01-13T08:33:33.231Z,-2.91
2023-01-13T08:36:35.135Z,-2.85
2023-01-13T08:39:36.995Z,-2.94
2023-01-13T08:42:38.861Z,-2.95
2023-01-13T08:45:40.874Z,-2.91
2023-01-13T08:48:42.641Z,-2.90
2023-01-13T08:51:45.079Z,-2.82
2023-01-13T08:54:46.992Z,-2.81
2023-01-13T08:57:48.883Z,-2.74
2023-01-13T09:00:50.807Z,-2.68
2023-01-13T09:03:53.232Z,-2.73
2023-01-13T09:06:55.688Z,-2.74
2023-01-13T09:09:57.626Z,-2.74
2023-01-13T09:13:14.772Z,-2.64
2023-01-13T09:16:16.725Z,-2.62
2023-01-13T09:19:18.943Z,-2.67
2023-01-13T09:22:20.884Z,-2.56
2023-01-13T09:25:22.763Z,-2.58
2023-01-13T09:28:24.658Z,-2.54
2023-01-13T09:31:26.487Z,-2.57
2023-01-13T09:34:46.953Z,-2.56
2023-01-13T09:37:48.804Z,-2.56
2023-01-13T09:40:50.748Z,-2.61
2023-01-13T09:43:59.293Z,-2.65
2023-01-13T09:47:07.008Z,-2.56
2023-01-13T09:50:22.255Z,-2.50
2023-01-13T09:53:34.439Z,-2.45
2023-01-13T09:56:36.523Z,-2.39
2023-01-13T09:59:38.838Z,-2.37
2023-01-13T10:03:08.430Z,-2.30
2023-01-13T10:06:12.951Z,-2.24
2023-01-13T10:09:38.312Z,-2.29
2023-01-13T10:13:01.489Z,-2.29
2023-01-13T10:16:24.779Z,-2.23
2023-01-13T10:19:34.998Z,-2.26
2023-01-13T10:22:42.960Z,-2.20
2023-01-13T10:26:03.966Z,-2.15
2023-01-13T10:29:19.296Z,-2.14
2023-01-13T10:32:21.124Z,-2.12
2023-01-13T10:35:49.972Z,-2.12
2023-01-13T10:38:52.029Z,-2.19
2023-01-13T10:42:13.774Z,-2.11
2023-01-13T10:45:25.527Z,-2.06
2023-01-13T10:48:38.167Z,-2.00
2023-01-13T10:51:39.933Z,-2.06
2023-01-13T10:54:51.881Z,-2.05
2023-01-13T10:57:53.893Z,-2.01
2023-01-13T11:01:01.185Z,-1.94
2023-01-13T11:04:27.049Z,-1.90
2023-01-13T11:07:38.880Z,-1.83
2023-01-13T11:10:47.013Z,-1.80
2023-01-13T11:14:12.154Z,-1.80
2023-01-13T11:17:29.361Z,-1.79
2023-01-13T11:20:37.001Z,-1.76
2023-01-13T11:23:49.224Z,-1.73
2023-01-13T11:27:02.174Z,-1.77
2023-01-13T11:30:10.157Z,-1.77
2023-01-13T11:33:15.259Z,-1.76
2023-01-13T11:36:35.060Z,-1.77
2023-01-13T11:39:56.317Z,-1.78
2023-01-13T11:43:31.632Z,-1.74
2023-01-13T11:46:33.548Z,-1.66
2023-01-13T11:49:35.778Z,-1.69
2023-01-13T11:53:25.277Z,-1.73
2023-01-13T11:56:32.985Z,-1.72
2023-01-13T11:59:59.163Z,-1.65
2023-01-13T12:03:19.454Z,-1.64
2023-01-13T12:06:33.001Z,-1.63
2023-01-13T12:09:52.735Z,-1.57
2023-01-13T12:13:22.035Z,-1.61
2023-01-13T12:16:31.729Z,-1.57
2023-01-13T12:19:33.743Z,-1.58
2023-01-13T12:22:37.260Z,-1.59
2023-01-13T12:25:50.156Z,-1.61
2023-01-13T12:29:04.916Z,-1.57
2023-01-13T12:32:14.986Z,-1.59
2023-01-13T12:35:38.907Z,-1.58
2023-01-13T12:38:48.419Z,-1.55
2023-01-13T12:42:31.894Z,-1.59
2023-01-13T12:45:34.028Z,-1.64
2023-01-13T12:48:57.230Z,-1.59
2023-01-13T12:52:16.056Z,-1.64
2023-01-13T12:55:35.199Z,-1.62
2023-01-13T12:58:36.999Z,-1.65
2023-01-13T13:01:38.960Z,-1.65
2023-01-13T13:04:43.697Z,-1.63
2023-01-13T13:07:48.767Z,-1.68
2023-01-13T13:11:34.110Z,-1.65
2023-01-13T13:14:42.155Z,-1.72
2023-01-13T13:17:45.958Z,-1.73
2023-01-13T13:20:54.282Z,-1.71
2023-01-13T13:23:56.170Z,-1.70
2023-01-13T13:27:16.198Z,-1.72
2023-01-13T13:30:29.799Z,-1.71
2023-01-13T13:33:52.880Z,-1.71
2023-01-13T13:37:22.209Z,-1.71
2023-01-13T13:40:43.629Z,-1.72
2023-01-13T13:44:04.932Z,-1.72
2023-01-13T13:47:07.631Z,-1.78
2023-01-13T13:50:16.175Z,-1.77
2023-01-13T13:53:19.805Z,-1.74
2023-01-13T13:56:26.315Z,-1.77
2023-01-13T13:59:30.734Z,-1.82
2023-01-13T14:02:37.662Z,-1.81
2023-01-13T14:05:39.505Z,-1.85
2023-01-13T14:08:46.583Z,-1.86
2023-01-13T14:12:16.513Z,-1.94
2023-01-13T14:15:34.726Z,-1.91
2023-01-13T14:18:47.539Z,-1.89
2023-01-13T14:21:49.352Z,-1.93
2023-01-13T14:24:55.747Z,-1.90
2023-01-13T14:28:00.463Z,-2.02
2023-01-13T14:31:02.795Z,-1.97
2023-01-13T14:34:32.437Z,-1.92
2023-01-13T14:37:41.670Z,-1.95
2023-01-13T14:40:45.446Z,-1.93
2023-01-13T14:43:49.292Z,-2.00
2023-01-13T14:46:51.938Z,-2.03
2023-01-13T14:50:16.445Z,-1.99
2023-01-13T14:53:35.621Z,-2.03
2023-01-13T14:56:55.575Z,-2.01
2023-01-13T15:00:08.038Z,-1.96
2023-01-13T15:03:14.801Z,-1.95
2023-01-13T15:06:24.921Z,-1.99
2023-01-13T15:09:33.364Z,-2.00
2023-01-13T17:59:26.475Z,-2.61
2023-01-13T18:02:30.263Z,-2.49
2023-01-13T18:05:34.128Z,-2.45
2023-01-13T18:08:36.108Z,-2.37
2023-01-13T18:11:38.212Z,-2.34
2023-01-13T18:14:40.202Z,-2.38
2023-01-13T18:17:42.170Z,-2.34
2023-01-13T18:21:03.511Z,-2.32
2023-01-13T18:24:24.784Z,-2.29
2023-01-13T18:27:30.953Z,-2.31
2023-01-13T18:30:33.247Z,-2.26
2023-01-13T18:33:36.326Z,-2.20
2023-01-13T18:36:39.194Z,-2.25
2023-01-13T18:39:41.528Z,-2.24
2023-01-13T18:42:53.657Z,-2.22
2023-01-13T18:45:55.622Z,-2.21
2023-01-13T18:48:57.844Z,-2.18
2023-01-13T18:51:59.863Z,-2.22
2023-01-13T18:55:02.005Z,-2.25
2023-01-13T18:58:04.519Z,-2.25
2023-01-13T19:01:06.925Z,-2.29
2023-01-13T19:04:15.853Z,-2.27
2023-01-13T19:07:23.487Z,-2.29
2023-01-13T19:10:25.420Z,-2.31
2023-01-13T19:13:27.340Z,-2.31
2023-01-13T19:16:29.654Z,-2.32
2023-01-13T19:19:31.609Z,-2.34
2023-01-13T19:22:34.722Z,-2.41
2023-01-13T19:25:37.126Z,-2.40
2023-01-13T19:28:40.667Z,-2.39
2023-01-13T19:31:42.541Z,-2.43
2023-01-13T19:34:44.914Z,-2.46
2023-01-13T19:37:46.853Z,-2.42
2023-01-13T19:41:00.628Z,-2.47
2023-01-13T19:44:21.312Z,-2.46
2023-01-13T19:47:23.477Z,-2.39
2023-01-13T19:50:25.769Z,-2.35
2023-01-13T19:53:29.062Z,-2.32
2023-01-13T19:56:31.033Z,-2.31
2023-01-13T19:59:33.617Z,-2.29
2023-01-13T20:02:37.082Z,-2.28
2023-01-13T20:05:39.015Z,-2.31
2023-01-13T20:08:42.050Z,-2.29
2023-01-13T20:11:43.812Z,-2.36
2023-01-13T20:14:47.670Z,-2.34
2023-01-13T20:17:49.532Z,-2.33
2023-01-13T20:20:51.454Z,-2.34
2023-01-13T20:23:53.730Z,-2.36
2023-01-13T20:26:55.742Z,-2.37
2023-01-13T20:29:57.652Z,-2.38
2023-01-13T20:32:59.556Z,-2.42
2023-01-13T20:36:01.709Z,-2.44
2023-01-13T20:39:06.238Z,-2.45
2023-01-13T20:42:28.091Z,-2.46
2023-01-13T20:45:29.957Z,-2.47
2023-01-13T20:48:32.846Z,-2.51
2023-01-13T20:51:34.731Z,-2.47
2023-01-13T20:54:41.374Z,-2.44
2023-01-13T20:57:43.570Z,-2.43
2023-01-13T21:00:45.471Z,-2.45
2023-01-13T21:03:47.440Z,-2.45
2023-01-13T21:06:49.960Z,-2.47
2023-01-13T21:09:51.890Z,-2.46
2023-01-13T21:13:12.186Z,-2.44
2023-01-13T21:16:14.267Z,-2.43
2023-01-13T21:19:16.845Z,-2.41
2023-01-13T21:22:18.761Z,-2.38
2023-01-13T21:25:20.738Z,-2.36
2023-01-13T21:28:25.189Z,-2.38
2023-01-13T21:31:27.787Z,-2.37
2023-01-13T21:34:29.757Z,-2.39
2023-01-13T21:37:31.701Z,-2.40
2023-01-13T21:40:33.675Z,-2.42
2023-01-13T21:44:06.759Z,-2.43
2023-01-13T21:47:35.556Z,-2.46
2023-01-13T21:50:38.655Z,-2.45
2023-01-13T21:53:40.582Z,-2.46
2023-01-13T21:56:42.440Z,-2.49
2023-01-13T21:59:44.345Z,-2.48
2023-01-13T22:02:46.688Z,-2.48
2023-01-13T22:05:54.822Z,-2.52
2023-01-13T22:08:59.984Z,-2.57
2023-01-13T22:12:01.934Z,-2.57
2023-01-13T22:15:04.316Z,-2.56
2023-01-13T22:18:06.316Z,-2.56
2023-01-13T22:21:08.337Z,-2.55
2023-01-13T22:24:10.277Z,-2.57
2023-01-13T22:27:18.542Z,-2.53
2023-01-13T22:30:25.129Z,-2.56
2023-01-13T22:33:27.055Z,-2.59
2023-01-13T22:36:28.938Z,-2.57
2023-01-13T22:39:30.857Z,-2.55
2023-01-13T22:42:37.030Z,-2.54
2023-01-13T22:45:39.104Z,-2.58
2023-01-13T22:48:41.202Z,-2.57
2023-01-13T22:51:44.119Z,-2.54
2023-01-13T22:54:45.931Z,-2.54
2023-01-13T22:57:48.561Z,-2.54
2023-01-13T23:00:50.881Z,-2.54
2023-01-13T23:03:53.440Z,-2.61
2023-01-13T23:06:55.413Z,-2.61
2023-01-13T23:09:57.311Z,-2.57
2023-01-13T23:12:59.213Z,-2.62
2023-01-13T23:16:12.249Z,-2.59
2023-01-13T23:19:14.239Z,-2.66
2023-01-13T23:22:18.738Z,-2.68
2023-01-13T23:25:20.607Z,-2.68
2023-01-13T23:28:22.835Z,-2.66
2023-01-13T23:31:24.748Z,-2.64
2023-01-13T23:34:26.760Z,-2.58
2023-01-13T23:37:28.715Z,-2.55
2023-01-13T23:40:30.732Z,-2.53
2023-01-13T23:43:32.812Z,-2.50
2023-01-13T23:46:35.434Z,-2.55
2023-01-13T23:49:37.400Z,-2.54
2023-01-13T23:52:39.312Z,-2.48
2023-01-13T23:55:41.158Z,-2.48
2023-01-13T23:58:44.026Z,-2.48
